Time;durP1;ratioP1;P1;durP2;ratioP2;P2;SDS_P1;SDS_P2;PMS_P1;PMS_P2;Temp;Humidity;BMP_temperature;BMP_pressure;BME280_temperature;BME280_humidity;BME280_pressure;Samples;Min_cycle;Max_cycle;Signal;HPM_P1;HPM_P2
2022/03/18 00:00:06;;;;;;;26.58;24.55;;;;;;;;;;4975435;28;20198;-86
2022/03/18 00:02:34;;;;;;;24.95;23.25;;;;;;;;;;4975262;28;20235;-86
2022/03/18 00:05:01;;;;;;;24.23;22.60;;;;;;;;;;4975188;28;20191;-86
2022/03/18 00:07:29;;;;;;;23.83;22.02;;;;;;;;;;4975224;28;20199;-87
2022/03/18 00:09:56;;;;;;;24.63;22.70;;;;;;;;;;4974966;28;20312;-86
2022/03/18 00:12:24;;;;;;;26.08;23.38;;;;;;;;;;4974625;28;20195;-86
2022/03/18 00:14:53;;;;;;;25.05;23.10;;;;;;;;;;4975048;28;20221;-86
2022/03/18 00:17:20;;;;;;;24.88;22.88;;;;;;;;;;4975058;28;20231;-86
2022/03/18 00:19:48;;;;;;;23.40;21.90;;;;;;;;;;4975424;28;20282;-87
2022/03/18 00:22:16;;;;;;;26.50;23.95;;;;;;;;;;4975794;28;20203;-87
2022/03/18 00:24:43;;;;;;;26.38;24.13;;;;;;;;;;4975409;28;20196;-86
2022/03/18 00:27:10;;;;;;;26.05;23.55;;;;;;;;;;4975574;28;20200;-86
2022/03/18 00:29:38;;;;;;;27.20;24.30;;;;;;;;;;4975491;28;20199;-87
2022/03/18 00:32:07;;;;;;;25.42;23.25;;;;;;;;;;4974986;28;20207;-87
2022/03/18 00:34:34;;;;;;;26.65;24.30;;;;;;;;;;4974501;28;20199;-86
2022/03/18 00:37:02;;;;;;;28.00;25.42;;;;;;;;;;4975123;28;20235;-87
2022/03/18 00:39:29;;;;;;;27.20;24.63;;;;;;;;;;4978608;28;20282;-86
2022/03/18 00:41:57;;;;;;;26.98;24.38;;;;;;;;;;4978362;28;20198;-86
2022/03/18 00:44:25;;;;;;;29.25;25.63;;;;;;;;;;4978446;28;20203;-86
2022/03/18 00:46:53;;;;;;;28.33;26.08;;;;;;;;;;4978930;28;20387;-86
2022/03/18 00:52:07;;;;;;;26.17;24.23;;;;;;;;;;4979208;28;20250;-86
2022/03/18 00:54:35;;;;;;;25.63;23.67;;;;;;;;;;4978634;28;20191;-87
2022/03/18 00:57:02;;;;;;;25.33;23.20;;;;;;;;;;4978213;28;20290;-86
2022/03/18 00:59:30;;;;;;;26.02;23.77;;;;;;;;;;4978630;28;20199;-86
2022/03/18 01:01:57;;;;;;;27.00;24.50;;;;;;;;;;4978464;28;20654;-86
2022/03/18 01:04:28;;;;;;;25.15;22.95;;;;;;;;;;4978409;28;20246;-87
2022/03/18 01:06:56;;;;;;;24.55;22.65;;;;;;;;;;4978210;28;20259;-86
2022/03/18 01:09:24;;;;;;;26.33;23.95;;;;;;;;;;4978294;28;20187;-87
2022/03/18 01:11:51;;;;;;;24.60;22.90;;;;;;;;;;4978929;28;20594;-86
2022/03/18 01:14:19;;;;;;;26.45;24.38;;;;;;;;;;4978707;28;20228;-86
2022/03/18 01:16:49;;;;;;;24.67;22.67;;;;;;;;;;4978391;28;20271;-86
2022/03/18 01:19:18;;;;;;;23.02;21.73;;;;;;;;;;4978224;28;20235;-86
2022/03/18 01:21:46;;;;;;;24.73;22.80;;;;;;;;;;4978630;28;20204;-87
2022/03/18 01:24:14;;;;;;;25.70;23.80;;;;;;;;;;4978593;28;20192;-86
2022/03/18 01:26:41;;;;;;;24.13;22.42;;;;;;;;;;4978758;28;20613;-85
2022/03/18 01:29:10;;;;;;;25.50;23.65;;;;;;;;;;4978203;28;20188;-86
2022/03/18 01:31:37;;;;;;;25.40;23.38;;;;;;;;;;4978657;28;20697;-86
2022/03/18 01:34:05;;;;;;;24.92;22.60;;;;;;;;;;4978037;28;20192;-86
2022/03/18 01:36:33;;;;;;;26.00;24.10;;;;;;;;;;4978288;28;20274;-86
2022/03/18 01:39:02;;;;;;;24.60;22.38;;;;;;;;;;4978791;28;20196;-87
2022/03/18 01:41:30;;;;;;;24.40;22.50;;;;;;;;;;4977612;28;20191;-87
2022/03/18 01:43:57;;;;;;;25.33;23.65;;;;;;;;;;4978656;28;20614;-87
2022/03/18 01:46:24;;;;;;;24.17;22.48;;;;;;;;;;4977848;28;20191;-86
2022/03/18 01:48:52;;;;;;;25.30;23.20;;;;;;;;;;4976705;28;20227;-85
2022/03/18 01:51:21;;;;;;;23.90;22.20;;;;;;;;;;4977952;28;20191;-86
2022/03/18 01:54:44;;;;;;;24.48;22.67;;;;;;;;;;4980018;28;20196;-87
2022/03/18 01:56:39;;;;;;;24.00;22.30;;;;;;;;;;4977325;28;20740;-86
2022/03/18 01:59:08;;;;;;;25.45;23.67;;;;;;;;;;4977462;28;20291;-87
2022/03/18 02:01:36;;;;;;;25.30;23.33;;;;;;;;;;4979043;28;21010;-87
2022/03/18 02:04:04;;;;;;;24.63;22.52;;;;;;;;;;4978748;28;20295;-86
2022/03/18 02:06:31;;;;;;;26.52;23.73;;;;;;;;;;4977350;28;20203;-87
2022/03/18 02:08:58;;;;;;;24.83;23.23;;;;;;;;;;4978525;28;20658;-86
2022/03/18 02:11:26;;;;;;;24.20;22.40;;;;;;;;;;4978284;28;20289;-87
2022/03/18 02:13:57;;;;;;;24.42;22.52;;;;;;;;;;4977731;28;20200;-86
2022/03/18 02:16:25;;;;;;;24.90;23.02;;;;;;;;;;4978232;28;20219;-86
2022/03/18 02:18:52;;;;;;;23.88;22.23;;;;;;;;;;4976743;28;20235;-86
2022/03/18 02:21:20;;;;;;;24.02;22.52;;;;;;;;;;4977519;28;20219;-86
2022/03/18 02:23:49;;;;;;;23.85;22.13;;;;;;;;;;4977379;28;20205;-86
2022/03/18 02:26:16;;;;;;;24.55;22.80;;;;;;;;;;4976760;28;20199;-86
2022/03/18 02:28:44;;;;;;;24.38;22.27;;;;;;;;;;4978346;28;20234;-86
2022/03/18 02:31:11;;;;;;;23.92;21.90;;;;;;;;;;4977084;28;20535;-86
2022/03/18 02:33:38;;;;;;;23.83;22.10;;;;;;;;;;4976819;28;20242;-86
2022/03/18 02:36:06;;;;;;;24.70;23.00;;;;;;;;;;4976485;28;20911;-86
2022/03/18 02:38:33;;;;;;;23.27;21.77;;;;;;;;;;4976182;28;20191;-86
2022/03/18 02:41:02;;;;;;;24.08;22.48;;;;;;;;;;4976871;28;20202;-86
2022/03/18 02:43:29;;;;;;;24.67;22.65;;;;;;;;;;4978197;28;20198;-86
2022/03/18 02:45:57;;;;;;;25.02;22.92;;;;;;;;;;4976661;28;20289;-86
2022/03/18 02:48:24;;;;;;;25.00;23.40;;;;;;;;;;4976586;28;20200;-87
2022/03/18 02:50:51;;;;;;;23.77;22.17;;;;;;;;;;4977438;28;20207;-86
2022/03/18 02:53:19;;;;;;;23.95;22.45;;;;;;;;;;4976614;28;20220;-86
2022/03/18 02:55:46;;;;;;;25.23;23.33;;;;;;;;;;4976182;28;20196;-86
2022/03/18 02:58:15;;;;;;;24.77;23.23;;;;;;;;;;4975772;28;20228;-86
2022/03/18 03:00:42;;;;;;;25.38;23.67;;;;;;;;;;4977530;28;20187;-86
2022/03/18 03:03:10;;;;;;;24.98;23.15;;;;;;;;;;4976006;28;20191;-86
2022/03/18 03:08:22;;;;;;;24.90;22.85;;;;;;;;;;4976230;28;20198;-86
2022/03/18 03:10:49;;;;;;;24.42;22.60;;;;;;;;;;4976354;28;20246;-86
2022/03/18 03:13:18;;;;;;;24.60;22.90;;;;;;;;;;4976387;28;20192;-85
2022/03/18 03:15:45;;;;;;;24.85;22.92;;;;;;;;;;4976112;28;20195;-86
2022/03/18 03:18:13;;;;;;;25.25;22.90;;;;;;;;;;4977432;28;20230;-87
2022/03/18 03:20:40;;;;;;;23.10;21.60;;;;;;;;;;4975670;28;20239;-86
2022/03/18 03:23:09;;;;;;;24.13;22.48;;;;;;;;;;4975804;28;20282;-85
2022/03/18 03:25:36;;;;;;;25.33;23.48;;;;;;;;;;4975283;28;20195;-86
2022/03/18 03:28:03;;;;;;;24.20;22.50;;;;;;;;;;4975441;28;20199;-85
2022/03/18 03:30:32;;;;;;;24.38;22.45;;;;;;;;;;4975269;28;20198;-85
2022/03/18 03:32:59;;;;;;;25.00;23.30;;;;;;;;;;4975676;28;20195;-86
2022/03/18 03:35:27;;;;;;;25.40;23.55;;;;;;;;;;4975340;28;20716;-86
2022/03/18 03:37:54;;;;;;;24.75;22.75;;;;;;;;;;4975176;28;20223;-86
2022/03/18 03:40:22;;;;;;;24.73;22.95;;;;;;;;;;4975068;28;20199;-86
2022/03/18 03:42:49;;;;;;;25.13;23.30;;;;;;;;;;4974846;28;20246;-86
2022/03/18 03:45:16;;;;;;;24.75;23.05;;;;;;;;;;4975313;28;20622;-84
2022/03/18 03:47:45;;;;;;;25.58;23.70;;;;;;;;;;4975259;28;20207;-86
2022/03/18 03:50:13;;;;;;;25.20;23.10;;;;;;;;;;4975095;28;20199;-86
2022/03/18 03:52:40;;;;;;;25.05;23.10;;;;;;;;;;4975142;28;20196;-85
2022/03/18 03:55:09;;;;;;;25.40;23.27;;;;;;;;;;4975190;28;20252;-85
2022/03/18 03:57:36;;;;;;;24.42;22.85;;;;;;;;;;4974736;28;20286;-86
2022/03/18 04:00:04;;;;;;;25.15;23.05;;;;;;;;;;4975156;28;20246;-86
2022/03/18 04:02:31;;;;;;;23.15;21.60;;;;;;;;;;4974908;28;20246;-86
2022/03/18 04:05:00;;;;;;;24.42;22.65;;;;;;;;;;4974719;28;20202;-86
2022/03/18 04:07:27;;;;;;;24.58;22.88;;;;;;;;;;4974414;28;20231;-84
2022/03/18 04:09:55;;;;;;;24.77;22.90;;;;;;;;;;4975384;28;20192;-86
2022/03/18 04:12:22;;;;;;;24.63;22.52;;;;;;;;;;4976324;28;20188;-86
2022/03/18 04:14:51;;;;;;;24.35;22.67;;;;;;;;;;4979013;28;20265;-86
2022/03/18 04:17:18;;;;;;;26.25;23.85;;;;;;;;;;4978823;28;20274;-86
2022/03/18 04:19:46;;;;;;;24.10;22.33;;;;;;;;;;4978537;28;20235;-85
2022/03/18 04:22:14;;;;;;;23.77;22.00;;;;;;;;;;4978684;28;20578;-85
2022/03/18 04:24:42;;;;;;;27.08;24.58;;;;;;;;;;4978842;28;20211;-86
2022/03/18 04:27:09;;;;;;;26.02;23.85;;;;;;;;;;4978234;28;20535;-86
2022/03/18 04:29:36;;;;;;;24.25;22.52;;;;;;;;;;4978223;28;20242;-86
2022/03/18 04:32:04;;;;;;;23.48;21.90;;;;;;;;;;4978527;28;20204;-86
2022/03/18 04:34:31;;;;;;;25.20;23.25;;;;;;;;;;4978208;28;20195;-86
2022/03/18 04:36:59;;;;;;;24.45;22.30;;;;;;;;;;4978380;28;20219;-85
2022/03/18 04:39:27;;;;;;;25.80;23.67;;;;;;;;;;4978530;28;20191;-85
2022/03/18 04:41:55;;;;;;;25.10;22.95;;;;;;;;;;4978444;28;20643;-86
2022/03/18 04:44:22;;;;;;;25.75;23.42;;;;;;;;;;4978064;28;20710;-85
2022/03/18 04:46:49;;;;;;;24.50;22.70;;;;;;;;;;4978387;28;20192;-85
2022/03/18 04:49:16;;;;;;;25.63;23.88;;;;;;;;;;4978294;28;20192;-86
2022/03/18 04:51:44;;;;;;;25.23;23.38;;;;;;;;;;4978081;28;20195;-86
2022/03/18 04:54:11;;;;;;;26.08;24.00;;;;;;;;;;4978183;28;20199;-85
2022/03/18 04:59:25;;;;;;;24.42;22.33;;;;;;;;;;4977927;28;20286;-86
2022/03/18 05:01:52;;;;;;;24.65;22.80;;;;;;;;;;4977592;28;20677;-85
2022/03/18 05:04:19;;;;;;;24.90;22.75;;;;;;;;;;4978025;28;20266;-84
2022/03/18 05:06:47;;;;;;;23.73;22.00;;;;;;;;;;4978234;28;20195;-85
2022/03/18 05:09:14;;;;;;;24.73;22.67;;;;;;;;;;4977932;28;20277;-86
2022/03/18 05:11:43;;;;;;;24.23;22.42;;;;;;;;;;4977930;28;20242;-85
2022/03/18 05:14:10;;;;;;;25.20;23.15;;;;;;;;;;4977813;28;20200;-86
2022/03/18 05:16:37;;;;;;;24.80;23.00;;;;;;;;;;4977669;28;20294;-86
2022/03/18 05:19:05;;;;;;;25.65;23.80;;;;;;;;;;4977524;28;20244;-85
2022/03/18 05:21:32;;;;;;;26.77;24.88;;;;;;;;;;4977697;28;20191;-85
2022/03/18 05:23:59;;;;;;;25.75;23.55;;;;;;;;;;4977500;28;20238;-86
2022/03/18 05:26:27;;;;;;;25.45;23.60;;;;;;;;;;4977737;28;20606;-85
2022/03/18 05:28:56;;;;;;;26.52;24.20;;;;;;;;;;4977526;28;20202;-85
2022/03/18 05:31:24;;;;;;;25.80;23.65;;;;;;;;;;4976946;28;20226;-83
2022/03/18 05:33:51;;;;;;;27.10;24.98;;;;;;;;;;4976554;28;20196;-85
2022/03/18 05:36:19;;;;;;;27.17;25.20;;;;;;;;;;4976993;28;20535;-85
2022/03/18 05:38:46;;;;;;;26.27;24.27;;;;;;;;;;4976706;28;20219;-83
2022/03/18 05:41:13;;;;;;;28.55;25.92;;;;;;;;;;4977501;28;20195;-84
2022/03/18 05:43:41;;;;;;;27.17;25.33;;;;;;;;;;4976638;28;20203;-84
2022/03/18 05:46:10;;;;;;;25.58;23.67;;;;;;;;;;4977517;28;20231;-84
2022/03/18 05:48:37;;;;;;;25.10;23.63;;;;;;;;;;4977274;28;20188;-84
2022/03/18 05:51:05;;;;;;;25.73;24.02;;;;;;;;;;4976579;28;20569;-84
2022/03/18 05:53:32;;;;;;;24.70;22.83;;;;;;;;;;4976991;28;20282;-84
2022/03/18 05:58:44;;;;;;;24.95;23.25;;;;;;;;;;4976180;28;20230;-84
2022/03/18 06:01:13;;;;;;;25.52;23.63;;;;;;;;;;4976230;28;20654;-84
2022/03/18 06:03:40;;;;;;;24.88;22.90;;;;;;;;;;4976166;28;20685;-84
2022/03/18 06:06:08;;;;;;;26.73;24.45;;;;;;;;;;4976386;28;20425;-84
2022/03/18 06:14:01;;;;;;;26.00;23.38;;;;;;;;;;4959610;28;20301;-84
2022/03/18 06:16:30;;;;;;;26.00;24.20;;;;;;;;;;4976189;28;20210;-84
2022/03/18 06:18:57;;;;;;;27.35;24.70;;;;;;;;;;4975823;28;20247;-84
2022/03/18 06:21:25;;;;;;;27.67;23.75;;;;;;;;;;4976317;28;20192;-84
2022/03/18 06:23:52;;;;;;;25.58;23.75;;;;;;;;;;4976423;28;20191;-84
2022/03/18 06:26:22;;;;;;;26.33;24.42;;;;;;;;;;4959565;28;20280;-83
2022/03/18 06:28:49;;;;;;;26.63;24.63;;;;;;;;;;4976002;28;20333;-84
2022/03/18 06:31:16;;;;;;;26.83;24.23;;;;;;;;;;4976156;28;20558;-84
2022/03/18 06:33:46;;;;;;;25.65;23.75;;;;;;;;;;4975888;28;20210;-84
2022/03/18 06:36:13;;;;;;;25.15;23.50;;;;;;;;;;4975472;28;20198;-84
2022/03/18 06:38:41;;;;;;;24.60;22.65;;;;;;;;;;4975433;28;20211;-84
2022/03/18 06:41:08;;;;;;;25.88;23.83;;;;;;;;;;4975873;28;20202;-84
2022/03/18 06:43:36;;;;;;;23.23;21.50;;;;;;;;;;4976729;28;20233;-84
2022/03/18 06:46:03;;;;;;;23.48;21.73;;;;;;;;;;4976743;28;20243;-83
2022/03/18 06:48:30;;;;;;;22.90;21.30;;;;;;;;;;4976877;28;20196;-84
2022/03/18 06:51:00;;;;;;;22.65;21.08;;;;;;;;;;4975865;28;20195;-83
2022/03/18 06:53:27;;;;;;;22.45;20.88;;;;;;;;;;4975451;28;20618;-85
2022/03/18 06:55:55;;;;;;;23.20;21.45;;;;;;;;;;4975798;28;20191;-84
2022/03/18 06:58:22;;;;;;;23.58;21.42;;;;;;;;;;4975051;28;20220;-84
2022/03/18 07:00:49;;;;;;;24.27;21.90;;;;;;;;;;4975600;28;20191;-84
2022/03/18 07:03:17;;;;;;;24.52;22.42;;;;;;;;;;4975320;28;20223;-84
2022/03/18 07:05:44;;;;;;;22.92;21.33;;;;;;;;;;4975237;28;20219;-85
2022/03/18 07:08:13;;;;;;;23.67;21.77;;;;;;;;;;4975877;28;20274;-83
2022/03/18 07:10:40;;;;;;;23.67;21.45;;;;;;;;;;4975386;28;20283;-85
2022/03/18 07:13:08;;;;;;;24.83;22.95;;;;;;;;;;4975328;28;20195;-85
2022/03/18 07:15:35;;;;;;;24.90;23.10;;;;;;;;;;4975628;28;20192;-85
2022/03/18 07:18:03;;;;;;;31.83;28.92;;;;;;;;;;4975651;28;20690;-84
2022/03/18 07:20:31;;;;;;;36.83;32.92;;;;;;;;;;4975057;28;20707;-85
2022/03/18 07:23:06;;;;;;;42.67;38.05;;;;;;;;;;4974820;28;20207;-84
2022/03/18 07:25:35;;;;;;;46.20;41.38;;;;;;;;;;4975170;28;20780;-84
2022/03/18 07:28:02;;;;;;;47.97;40.10;;;;;;;;;;4974581;28;20250;-83
2022/03/18 07:30:29;;;;;;;40.60;36.65;;;;;;;;;;4957518;28;20207;-84
2022/03/18 07:32:57;;;;;;;37.08;33.55;;;;;;;;;;4974948;28;20195;-84
2022/03/18 07:35:24;;;;;;;34.88;31.67;;;;;;;;;;4974854;28;20212;-84
2022/03/18 07:37:51;;;;;;;34.15;31.35;;;;;;;;;;4974951;28;20253;-84
2022/03/18 07:40:19;;;;;;;33.58;30.90;;;;;;;;;;4975011;28;20196;-84
2022/03/18 07:42:50;;;;;;;32.08;29.48;;;;;;;;;;4974605;28;20231;-84
2022/03/18 07:45:22;;;;;;;30.67;28.13;;;;;;;;;;4974470;28;20188;-83
2022/03/18 07:47:50;;;;;;;33.17;29.98;;;;;;;;;;4973960;28;20203;-84
2022/03/18 07:50:21;;;;;;;33.55;30.80;;;;;;;;;;4974844;28;20286;-84
2022/03/18 07:52:50;;;;;;;34.55;31.42;;;;;;;;;;4974625;28;20195;-84
2022/03/18 07:55:18;;;;;;;33.50;30.65;;;;;;;;;;4974832;28;20192;-84
2022/03/18 07:57:45;;;;;;;32.42;29.52;;;;;;;;;;4974524;28;20219;-84
2022/03/18 08:00:15;;;;;;;32.40;29.33;;;;;;;;;;4974772;28;20195;-84
2022/03/18 08:02:43;;;;;;;30.85;28.25;;;;;;;;;;4974072;28;20215;-84
2022/03/18 08:05:11;;;;;;;31.35;28.75;;;;;;;;;;4956992;28;20207;-83
2022/03/18 08:07:39;;;;;;;31.00;28.63;;;;;;;;;;4957257;28;20200;-85
2022/03/18 08:10:07;;;;;;;31.20;28.38;;;;;;;;;;4973878;28;20188;-84
2022/03/18 08:12:35;;;;;;;30.25;27.45;;;;;;;;;;4974041;28;20609;-81
2022/03/18 08:15:06;;;;;;;28.30;25.70;;;;;;;;;;4974329;28;20187;-83
2022/03/18 08:17:35;;;;;;;30.13;26.92;;;;;;;;;;4974441;28;20258;-82
2022/03/18 08:20:02;;;;;;;28.20;25.90;;;;;;;;;;4974114;28;20243;-81
2022/03/18 08:22:29;;;;;;;30.90;27.77;;;;;;;;;;4974093;28;20227;-81
2022/03/18 08:24:57;;;;;;;28.70;26.60;;;;;;;;;;4974042;28;20443;-83
2022/03/18 08:27:24;;;;;;;29.77;27.00;;;;;;;;;;4973400;28;20198;-85
2022/03/18 08:29:54;;;;;;;28.00;25.25;;;;;;;;;;4974531;28;20216;-87
2022/03/18 08:32:21;;;;;;;28.65;26.20;;;;;;;;;;4974316;28;20200;-86
2022/03/18 08:34:50;;;;;;;28.73;26.05;;;;;;;;;;4957455;28;20307;-84
2022/03/18 08:37:56;;;;;;;27.08;24.60;;;;;;;;;;4974221;28;20196;-83
2022/03/18 08:40:05;;;;;;;27.58;25.08;;;;;;;;;;4973903;28;20199;-84
2022/03/18 08:42:34;;;;;;;27.25;24.77;;;;;;;;;;4974306;28;20223;-84
2022/03/18 08:45:02;;;;;;;26.02;23.73;;;;;;;;;;4974261;28;20207;-85
2022/03/18 08:47:29;;;;;;;26.42;24.08;;;;;;;;;;4974366;28;20283;-85
2022/03/18 08:49:58;;;;;;;22.00;20.10;;;;;;;;;;4973836;28;20227;-83
2022/03/18 08:52:25;;;;;;;22.40;20.80;;;;;;;;;;4974372;28;20192;-85
2022/03/18 08:54:53;;;;;;;23.58;21.85;;;;;;;;;;4974062;28;20196;-90
2022/03/18 08:57:20;;;;;;;21.27;19.35;;;;;;;;;;4973791;28;20689;-84
2022/03/18 08:59:48;;;;;;;20.63;19.00;;;;;;;;;;4977449;28;20227;-85
2022/03/18 09:02:15;;;;;;;20.97;19.57;;;;;;;;;;4977423;28;20565;-88
2022/03/18 09:04:43;;;;;;;20.50;19.30;;;;;;;;;;4977687;28;20941;-83
2022/03/18 09:07:12;;;;;;;21.88;19.77;;;;;;;;;;4977416;28;20529;-82
2022/03/18 09:09:39;;;;;;;21.15;19.73;;;;;;;;;;4977216;28;20234;-81
2022/03/18 09:12:07;;;;;;;21.80;20.25;;;;;;;;;;4976808;28;20196;-82
2022/03/18 09:14:34;;;;;;;21.83;20.40;;;;;;;;;;4977186;28;20200;-82
2022/03/18 09:17:02;;;;;;;23.43;21.43;;;;;;;;;;4976866;28;20880;-81
2022/03/18 09:19:30;;;;;;;22.08;20.35;;;;;;;;;;4976950;28;20509;-81
2022/03/18 09:21:57;;;;;;;23.10;21.03;;;;;;;;;;4977536;28;20207;-81
2022/03/18 09:24:26;;;;;;;21.55;20.10;;;;;;;;;;4976792;28;20443;-81
2022/03/18 09:26:53;;;;;;;22.83;21.20;;;;;;;;;;4976427;28;20650;-81
2022/03/18 09:29:24;;;;;;;21.60;20.07;;;;;;;;;;4977041;28;20414;-82
2022/03/18 09:31:52;;;;;;;21.50;20.10;;;;;;;;;;4977149;28;20454;-86
2022/03/18 09:34:22;;;;;;;22.97;21.27;;;;;;;;;;4974838;28;20932;-84
2022/03/18 09:36:50;;;;;;;28.10;22.43;;;;;;;;;;4976234;28;20959;-83
2022/03/18 09:39:17;;;;;;;23.20;21.33;;;;;;;;;;4976035;28;20570;-83
2022/03/18 09:41:46;;;;;;;23.63;22.00;;;;;;;;;;4976791;28;20425;-85
2022/03/18 09:44:13;;;;;;;23.27;21.58;;;;;;;;;;4960226;28;20658;-85
2022/03/18 09:46:41;;;;;;;23.50;21.77;;;;;;;;;;4977869;28;20199;-84
2022/03/18 09:49:11;;;;;;;23.40;21.30;;;;;;;;;;4976997;28;20945;-84
2022/03/18 09:51:40;;;;;;;21.93;20.43;;;;;;;;;;4979382;28;20447;-84
2022/03/18 09:54:08;;;;;;;21.97;20.40;;;;;;;;;;4979215;28;20451;-85
2022/03/18 09:56:36;;;;;;;22.07;20.17;;;;;;;;;;4978092;28;20444;-85
2022/03/18 09:59:04;;;;;;;23.77;21.87;;;;;;;;;;4979950;28;21008;-85
2022/03/18 10:01:32;;;;;;;24.50;22.53;;;;;;;;;;4979758;28;20435;-84
2022/03/18 10:04:04;;;;;;;24.20;22.00;;;;;;;;;;4979476;28;20409;-85
2022/03/18 10:06:32;;;;;;;22.13;20.70;;;;;;;;;;4979703;28;20500;-85
2022/03/18 10:09:00;;;;;;;23.47;21.60;;;;;;;;;;4979562;28;20461;-86
2022/03/18 10:11:30;;;;;;;27.70;25.47;;;;;;;;;;4978658;28;20447;-84
2022/03/18 10:14:00;;;;;;;24.93;22.47;;;;;;;;;;4978828;28;20910;-85
2022/03/18 10:16:33;;;;;;;23.67;21.70;;;;;;;;;;4978129;28;20849;-84
2022/03/18 10:19:01;;;;;;;23.50;21.57;;;;;;;;;;4977061;28;20584;-85
2022/03/18 10:21:29;;;;;;;24.67;22.63;;;;;;;;;;4976516;28;20783;-84
2022/03/18 10:24:10;;;;;;;23.63;21.97;;;;;;;;;;4976230;28;20913;-84
2022/03/18 10:26:38;;;;;;;24.93;22.80;;;;;;;;;;4975459;28;20984;-85
2022/03/18 10:29:06;;;;;;;23.63;21.93;;;;;;;;;;4975945;28;20455;-85
2022/03/18 10:31:34;;;;;;;24.03;22.20;;;;;;;;;;4975722;28;20413;-84
2022/03/18 10:39:39;;;;;;;24.17;22.17;;;;;;;;;;4967040;28;20473;-83
2022/03/18 10:42:07;;;;;;;24.30;22.57;;;;;;;;;;4975663;28;20425;-85
2022/03/18 10:44:45;;;;;;;23.87;22.27;;;;;;;;;;4975944;28;20418;-84
2022/03/18 10:47:26;;;;;;;22.43;20.80;;;;;;;;;;4975929;28;20450;-83
2022/03/18 10:49:54;;;;;;;24.20;22.10;;;;;;;;;;4975592;28;20418;-83
2022/03/18 10:52:23;;;;;;;23.10;21.40;;;;;;;;;;4975792;28;20480;-84
2022/03/18 10:54:51;;;;;;;25.17;23.13;;;;;;;;;;4975504;28;20416;-84
2022/03/18 10:57:19;;;;;;;23.97;22.30;;;;;;;;;;4975306;28;20417;-84
2022/03/18 10:59:46;;;;;;;23.73;22.03;;;;;;;;;;4975034;28;20537;-84
2022/03/18 11:02:17;;;;;;;24.40;22.70;;;;;;;;;;4957774;28;20429;-84
2022/03/18 11:04:46;;;;;;;24.60;22.60;;;;;;;;;;4975124;28;20840;-84
2022/03/18 11:07:34;;;;;;;24.00;22.20;;;;;;;;;;4975304;28;20784;-84
2022/03/18 11:12:47;;;;;;;26.40;23.73;;;;;;;;;;4974997;28;20972;-84
2022/03/18 11:15:16;;;;;;;23.37;21.80;;;;;;;;;;4975136;28;20447;-84
2022/03/18 11:17:44;;;;;;;24.20;22.37;;;;;;;;;;4974890;28;20789;-84
2022/03/18 11:20:13;;;;;;;24.63;22.83;;;;;;;;;;4957188;28;20468;-84
2022/03/18 11:22:41;;;;;;;24.77;22.87;;;;;;;;;;4974850;28;20495;-84
2022/03/18 11:25:10;;;;;;;25.27;23.53;;;;;;;;;;4974684;28;20429;-84
2022/03/18 11:27:41;;;;;;;23.57;21.63;;;;;;;;;;4974684;28;20455;-84
2022/03/18 11:30:23;;;;;;;24.90;23.20;;;;;;;;;;4975491;28;20871;-84
2022/03/18 11:33:08;;;;;;;25.33;23.10;;;;;;;;;;4972559;28;20944;-90
2022/03/18 11:35:50;;;;;;;25.90;23.80;;;;;;;;;;4975393;28;20413;-87
2022/03/18 11:38:23;;;;;;;23.57;21.90;;;;;;;;;;4974146;28;20498;-85
2022/03/18 11:40:53;;;;;;;24.60;22.77;;;;;;;;;;4958870;28;21008;-91
2022/03/18 11:43:30;;;;;;;25.03;23.20;;;;;;;;;;4975698;28;20417;-83
2022/03/18 11:46:21;;;;;;;24.63;22.83;;;;;;;;;;4975741;28;20911;-86
2022/03/18 11:48:50;;;;;;;23.67;21.97;;;;;;;;;;4975744;28;20454;-87
2022/03/18 11:51:24;;;;;;;25.13;22.90;;;;;;;;;;4976140;28;20879;-91
2022/03/18 11:53:54;;;;;;;25.47;23.70;;;;;;;;;;4976020;28;20491;-84
2022/03/18 11:56:23;;;;;;;24.67;22.90;;;;;;;;;;4975419;28;20445;-86
2022/03/18 11:58:50;;;;;;;25.43;23.60;;;;;;;;;;4974925;28;20893;-86
2022/03/18 12:01:36;;;;;;;25.97;23.90;;;;;;;;;;4975734;28;20480;-84
2022/03/18 12:04:06;;;;;;;25.47;23.60;;;;;;;;;;4974775;28;20413;-88
2022/03/18 12:06:33;;;;;;;23.80;22.00;;;;;;;;;;4957660;28;20472;-84
2022/03/18 12:09:03;;;;;;;24.57;22.83;;;;;;;;;;4975207;28;20421;-85
2022/03/18 12:11:33;;;;;;;24.03;22.40;;;;;;;;;;4974675;28;20418;-90
2022/03/18 12:14:01;;;;;;;25.20;23.53;;;;;;;;;;4975693;28;20433;-87
2022/03/18 12:16:30;;;;;;;25.03;23.03;;;;;;;;;;4974700;28;20496;-87
2022/03/18 12:18:59;;;;;;;23.10;21.67;;;;;;;;;;4974050;28;20472;-86
2022/03/18 12:21:37;;;;;;;24.83;23.00;;;;;;;;;;4974548;28;20443;-86
2022/03/18 12:24:10;;;;;;;24.10;22.43;;;;;;;;;;4974760;28;20989;-87
2022/03/18 12:26:38;;;;;;;24.43;22.63;;;;;;;;;;4974374;28;20458;-86
2022/03/18 12:29:06;;;;;;;24.43;22.70;;;;;;;;;;4973605;28;20438;-86
2022/03/18 12:31:33;;;;;;;25.47;23.67;;;;;;;;;;4974461;28;20439;-86
2022/03/18 12:34:03;;;;;;;24.60;23.00;;;;;;;;;;4976981;28;20449;-85
2022/03/18 12:36:31;;;;;;;23.77;22.07;;;;;;;;;;4978702;28;20426;-86
2022/03/18 12:39:13;;;;;;;24.73;22.97;;;;;;;;;;4979042;28;20409;-86
2022/03/18 12:41:41;;;;;;;23.60;22.00;;;;;;;;;;4978033;28;20907;-86
2022/03/18 12:44:09;;;;;;;23.70;22.10;;;;;;;;;;4978204;28;20433;-86
2022/03/18 12:46:37;;;;;;;23.33;21.70;;;;;;;;;;4978110;28;20827;-85
2022/03/18 12:49:06;;;;;;;25.50;23.67;;;;;;;;;;4977984;28;20413;-86
2022/03/18 12:51:37;;;;;;;23.97;22.40;;;;;;;;;;4978374;28;20941;-87
2022/03/18 12:54:04;;;;;;;24.23;22.40;;;;;;;;;;4978123;28;20448;-86
2022/03/18 12:56:33;;;;;;;26.70;24.10;;;;;;;;;;4978320;28;21113;-86
2022/03/18 12:59:00;;;;;;;24.87;23.17;;;;;;;;;;4978759;28;20435;-86
2022/03/18 13:01:28;;;;;;;25.13;23.20;;;;;;;;;;4978180;28;20433;-86
2022/03/18 13:03:56;;;;;;;25.60;23.70;;;;;;;;;;4978283;28;20513;-87
2022/03/18 13:06:27;;;;;;;24.37;22.67;;;;;;;;;;4978327;28;20521;-86
2022/03/18 13:09:03;;;;;;;24.40;22.70;;;;;;;;;;4978227;28;20909;-86
2022/03/18 13:11:35;;;;;;;25.80;23.60;;;;;;;;;;4960583;28;20435;-86
2022/03/18 13:14:05;;;;;;;24.40;22.73;;;;;;;;;;4978265;28;20452;-86
2022/03/18 13:16:40;;;;;;;24.00;22.60;;;;;;;;;;4978019;28;20418;-86
2022/03/18 13:19:08;;;;;;;24.27;22.70;;;;;;;;;;4977632;28;20513;-86
2022/03/18 13:21:42;;;;;;;25.13;23.47;;;;;;;;;;4977830;28;20887;-87
2022/03/18 13:24:12;;;;;;;24.27;22.70;;;;;;;;;;4978052;28;20446;-87
2022/03/18 13:26:43;;;;;;;26.00;24.10;;;;;;;;;;4960989;28;20465;-86
2022/03/18 13:29:10;;;;;;;25.50;23.60;;;;;;;;;;4977587;28;20410;-85
2022/03/18 13:34:30;;;;;;;23.97;22.37;;;;;;;;;;4977230;28;20413;-86
2022/03/18 13:37:10;;;;;;;23.93;22.33;;;;;;;;;;4977412;28;20473;-84
2022/03/18 13:39:38;;;;;;;23.47;22.13;;;;;;;;;;4976823;28;21034;-85
2022/03/18 13:42:07;;;;;;;24.17;22.67;;;;;;;;;;4977023;28;20937;-85
2022/03/18 13:44:47;;;;;;;25.00;22.97;;;;;;;;;;4975826;28;20418;-85
2022/03/18 13:47:15;;;;;;;24.57;22.97;;;;;;;;;;4977449;28;20428;-87
2022/03/18 13:49:54;;;;;;;24.23;22.30;;;;;;;;;;4977242;28;20422;-86
2022/03/18 13:52:31;;;;;;;23.20;21.70;;;;;;;;;;4977296;28;20438;-86
2022/03/18 13:54:59;;;;;;;24.20;22.47;;;;;;;;;;4976975;28;20464;-84
2022/03/18 13:57:28;;;;;;;24.27;22.67;;;;;;;;;;4976809;28;20425;-84
2022/03/18 13:59:57;;;;;;;23.83;22.43;;;;;;;;;;4976301;28;20546;-84
2022/03/18 14:02:26;;;;;;;24.17;22.77;;;;;;;;;;4976289;28;20450;-84
2022/03/18 14:04:55;;;;;;;23.17;21.57;;;;;;;;;;4976205;28;20986;-86
2022/03/18 14:07:24;;;;;;;23.03;21.43;;;;;;;;;;4979192;28;20450;-83
2022/03/18 14:09:55;;;;;;;24.70;21.70;;;;;;;;;;4977175;28;20429;-84
2022/03/18 14:12:23;;;;;;;24.53;22.73;;;;;;;;;;4976877;28;20447;-86
2022/03/18 14:15:07;;;;;;;23.30;21.70;;;;;;;;;;4976936;28;20442;-87
2022/03/18 14:17:35;;;;;;;24.40;22.83;;;;;;;;;;4977053;28;20429;-87
2022/03/18 14:20:08;;;;;;;24.53;23.00;;;;;;;;;;4976470;28;20510;-85
2022/03/18 14:22:37;;;;;;;23.80;22.40;;;;;;;;;;4976027;28;20414;-84
2022/03/18 14:25:06;;;;;;;23.60;22.03;;;;;;;;;;4977434;28;20446;-85
2022/03/18 14:27:33;;;;;;;24.20;22.90;;;;;;;;;;4977986;28;20450;-86
2022/03/18 14:30:08;;;;;;;23.70;22.30;;;;;;;;;;4977081;28;20440;-85
2022/03/18 14:32:36;;;;;;;23.20;21.77;;;;;;;;;;4976112;28;20730;-85
2022/03/18 14:35:04;;;;;;;24.90;23.00;;;;;;;;;;4976599;28;20449;-85
2022/03/18 14:37:32;;;;;;;24.87;23.33;;;;;;;;;;4975963;28;20467;-85
2022/03/18 14:40:00;;;;;;;24.47;22.73;;;;;;;;;;4976196;28;20890;-85
2022/03/18 14:42:27;;;;;;;24.70;23.20;;;;;;;;;;4975587;28;20443;-86
2022/03/18 14:44:55;;;;;;;24.10;22.60;;;;;;;;;;4976092;28;20432;-86
2022/03/18 14:47:24;;;;;;;26.03;23.63;;;;;;;;;;4976167;28;20439;-87
2022/03/18 14:49:53;;;;;;;25.83;23.87;;;;;;;;;;4976309;28;20420;-86
2022/03/18 14:52:20;;;;;;;24.73;23.23;;;;;;;;;;4976159;28;20417;-85